createdAt,value
2023-08-03T00:01:53.671Z,18.84
2023-08-03T00:04:25.699Z,18.82
2023-08-03T00:06:57.730Z,18.84
2023-08-03T00:09:29.725Z,18.84
2023-08-03T00:12:01.760Z,18.85
2023-08-03T00:14:33.783Z,18.85
2023-08-03T00:17:06.222Z,18.83
2023-08-03T00:19:38.252Z,18.85
2023-08-03T00:22:11.216Z,18.85
2023-08-03T00:24:43.207Z,18.86
2023-08-03T00:27:15.219Z,18.88
2023-08-03T00:29:47.175Z,18.88
2023-08-03T00:32:19.769Z,18.86
2023-08-03T00:34:51.731Z,18.87
2023-08-03T00:37:23.749Z,18.86
2023-08-03T00:39:55.710Z,18.82
2023-08-03T00:42:27.817Z,18.88
2023-08-03T00:44:59.858Z,18.89
2023-08-03T00:47:32.085Z,18.88
2023-08-03T00:50:04.594Z,18.94
2023-08-03T00:52:36.943Z,18.94
2023-08-03T00:55:09.379Z,18.79
2023-08-03T00:57:41.354Z,18.93
2023-08-03T01:00:14.189Z,18.95
2023-08-03T01:02:46.298Z,18.94
2023-08-03T01:05:18.463Z,18.94
2023-08-03T01:07:51.248Z,18.85
2023-08-03T01:10:23.555Z,18.91
2023-08-03T01:12:57.622Z,18.91
2023-08-03T01:15:29.648Z,18.94
2023-08-03T01:18:01.818Z,18.93
2023-08-03T01:20:38.747Z,18.93
2023-08-03T01:23:11.771Z,18.95
2023-08-03T01:25:43.922Z,18.82
2023-08-03T01:28:15.874Z,18.98
2023-08-03T01:30:49.268Z,18.96
2023-08-03T01:33:21.625Z,18.95
2023-08-03T01:35:53.998Z,18.98
2023-08-03T01:38:26.060Z,18.98
2023-08-03T01:40:58.178Z,19.01
2023-08-03T01:43:30.231Z,18.97
2023-08-03T01:46:02.283Z,19.01
2023-08-03T01:48:34.230Z,19.00
2023-08-03T01:51:06.369Z,19.01
2023-08-03T01:53:38.360Z,19.00
2023-08-03T01:56:10.311Z,19.01
2023-08-03T01:58:42.246Z,19.02
2023-08-03T02:01:14.174Z,18.98
2023-08-03T02:03:46.152Z,19.01
2023-08-03T02:06:18.156Z,18.99
2023-08-03T02:08:50.144Z,18.95
2023-08-03T02:11:22.096Z,18.91
2023-08-03T02:13:54.119Z,18.91
2023-08-03T02:16:26.321Z,18.88
2023-08-03T02:18:58.375Z,18.87
2023-08-03T02:21:30.368Z,18.89
2023-08-03T02:24:02.358Z,18.86
2023-08-03T02:26:34.384Z,18.84
2023-08-03T02:29:06.744Z,18.67
2023-08-03T02:31:38.714Z,18.84
2023-08-03T02:34:10.684Z,18.83
2023-08-03T02:36:42.643Z,18.83
2023-08-03T02:39:14.738Z,18.82
2023-08-03T02:41:46.890Z,18.77
2023-08-03T02:44:19.304Z,18.80
2023-08-03T02:46:51.276Z,18.80
2023-08-03T02:49:23.278Z,18.77
2023-08-03T02:51:55.219Z,18.78
2023-08-03T02:54:27.187Z,18.80
2023-08-03T02:56:59.110Z,18.79
2023-08-03T02:59:31.109Z,18.76
2023-08-03T03:02:03.121Z,18.76
2023-08-03T03:04:35.095Z,18.71
2023-08-03T03:07:07.253Z,18.73
2023-08-03T03:09:39.219Z,18.72
2023-08-03T03:12:11.269Z,18.71
2023-08-03T03:14:43.244Z,18.70
2023-08-03T03:17:15.949Z,18.69
2023-08-03T03:19:47.911Z,18.69
2023-08-03T03:22:19.848Z,18.69
2023-08-03T03:24:51.845Z,18.66
2023-08-03T03:27:23.959Z,18.67
2023-08-03T03:29:55.913Z,18.70
2023-08-03T03:32:28.016Z,18.63
2023-08-03T03:35:00.120Z,18.65
2023-08-03T03:37:32.113Z,18.61
2023-08-03T03:40:04.830Z,18.62
2023-08-03T03:42:37.204Z,18.65
2023-08-03T03:45:09.630Z,18.62
2023-08-03T03:47:41.654Z,18.59
2023-08-03T03:50:13.774Z,18.59
2023-08-03T03:52:45.776Z,18.54
2023-08-03T03:55:17.824Z,18.59
2023-08-03T03:57:49.743Z,18.58
2023-08-03T04:00:43.189Z,18.55
2023-08-03T04:03:15.294Z,18.51
2023-08-03T04:05:47.263Z,18.56
2023-08-03T04:08:19.255Z,18.58
2023-08-03T04:10:51.224Z,18.56
2023-08-03T04:13:23.184Z,18.55
2023-08-03T04:15:55.143Z,18.58
2023-08-03T04:18:28.983Z,18.59
2023-08-03T04:21:00.997Z,18.54
2023-08-03T04:23:33.034Z,18.59
2023-08-03T04:26:05.122Z,18.58
2023-08-03T04:28:37.649Z,18.83
2023-08-03T04:31:10.807Z,18.64
2023-08-03T04:33:42.911Z,18.61
2023-08-03T04:36:33.383Z,18.56
2023-08-03T04:39:05.528Z,18.53
2023-08-03T04:41:37.468Z,18.54
2023-08-03T04:44:09.443Z,18.52
2023-08-03T04:46:41.428Z,18.51
2023-08-03T04:49:14.717Z,18.51
2023-08-03T04:51:47.173Z,18.51
2023-08-03T04:54:20.829Z,18.53
2023-08-03T04:56:53.772Z,18.55
2023-08-03T04:59:25.928Z,18.57
2023-08-03T05:01:57.953Z,18.61
2023-08-03T05:04:45.335Z,18.58
2023-08-03T05:07:17.326Z,18.62
2023-08-03T05:09:49.326Z,18.60
2023-08-03T05:12:21.428Z,18.57
2023-08-03T05:14:53.404Z,18.58
2023-08-03T05:17:25.393Z,18.56
2023-08-03T05:19:57.454Z,18.58
2023-08-03T05:22:29.456Z,18.59
2023-08-03T05:25:01.546Z,18.60
2023-08-03T05:27:33.613Z,18.59
2023-08-03T05:30:07.887Z,18.61
2023-08-03T05:32:55.434Z,18.63
2023-08-03T05:35:27.447Z,18.64
2023-08-03T05:37:59.492Z,18.68
2023-08-03T05:40:31.496Z,18.67
2023-08-03T05:43:08.139Z,18.70
2023-08-03T05:45:49.987Z,18.68
2023-08-03T05:48:22.567Z,18.65
2023-08-03T05:50:56.686Z,18.64
2023-08-03T05:53:29.084Z,18.73
2023-08-03T05:56:11.620Z,18.70
2023-08-03T05:58:44.715Z,18.71
2023-08-03T06:01:21.737Z,18.72
2023-08-03T06:03:54.879Z,18.71
2023-08-03T06:06:27.197Z,18.71
2023-08-03T06:09:00.995Z,18.69
2023-08-03T06:11:33.222Z,18.73
2023-08-03T06:14:11.396Z,18.71
2023-08-03T06:16:46.686Z,18.68
2023-08-03T06:19:18.773Z,18.72
2023-08-03T06:21:50.766Z,18.74
2023-08-03T06:24:23.309Z,18.78
2023-08-03T06:26:55.407Z,18.84
2023-08-03T06:29:27.672Z,18.86
2023-08-03T06:32:00.337Z,18.86
2023-08-03T06:34:34.464Z,18.85
2023-08-03T06:37:06.993Z,18.87
2023-08-03T06:39:39.061Z,18.88
2023-08-03T06:42:11.053Z,18.85
2023-08-03T06:44:43.129Z,18.84
2023-08-03T06:47:15.267Z,18.85
2023-08-03T06:49:47.267Z,18.83
2023-08-03T06:52:19.297Z,18.83
2023-08-03T06:54:51.278Z,18.82
2023-08-03T06:57:23.317Z,18.83
2023-08-03T06:59:56.421Z,18.86
2023-08-03T07:02:28.496Z,18.82
2023-08-03T07:05:00.574Z,18.86
2023-08-03T07:07:33.381Z,18.87
2023-08-03T07:10:07.252Z,18.85
2023-08-03T07:12:39.306Z,18.81
2023-08-03T07:15:11.636Z,18.89
2023-08-03T07:17:43.655Z,18.94
2023-08-03T07:20:15.852Z,18.94
2023-08-03T07:22:49.946Z,18.96
2023-08-03T07:25:22.025Z,18.94
2023-08-03T07:27:55.253Z,19.01
2023-08-03T07:30:28.186Z,19.04
2023-08-03T07:33:01.109Z,19.06
2023-08-03T07:35:33.193Z,19.07
2023-08-03T07:38:05.642Z,19.05
2023-08-03T07:40:39.404Z,19.15
2023-08-03T07:43:11.407Z,19.25
2023-08-03T07:48:18.299Z,19.43
2023-08-03T07:50:50.249Z,19.45
2023-08-03T07:53:22.247Z,19.45
2023-08-03T07:55:54.201Z,19.49
2023-08-03T07:58:26.141Z,19.49
2023-08-03T08:01:08.965Z,19.44
2023-08-03T08:03:42.872Z,19.37
2023-08-03T08:06:18.956Z,19.33
2023-08-03T08:09:08.465Z,19.29
2023-08-03T08:11:40.620Z,19.24
2023-08-03T08:14:12.753Z,19.19
2023-08-03T08:16:46.840Z,19.23
2023-08-03T08:19:31.814Z,19.16
2023-08-03T08:22:14.794Z,19.15
2023-08-03T08:24:49.019Z,19.10
2023-08-03T08:27:21.485Z,19.04
2023-08-03T08:29:53.505Z,19.04
2023-08-03T08:32:25.607Z,19.03
2023-08-03T08:34:57.709Z,19.04
2023-08-03T08:37:31.228Z,19.02
2023-08-03T08:40:04.487Z,18.97
2023-08-03T08:42:36.693Z,19.02
2023-08-03T08:45:11.953Z,19.01
2023-08-03T08:47:44.798Z,19.00
2023-08-03T09:00:47.674Z,19.10
2023-08-03T09:03:20.861Z,19.11
2023-08-03T09:08:56.658Z,19.04
2023-08-03T09:11:42.504Z,18.98
2023-08-03T09:14:15.655Z,18.94
2023-08-03T09:16:47.837Z,18.94
2023-08-03T09:25:31.155Z,19.01
2023-08-03T09:38:50.152Z,19.07
2023-08-03T09:44:15.891Z,19.11
2023-08-03T09:46:51.902Z,19.18
2023-08-03T09:49:25.146Z,19.26
2023-08-03T09:52:05.407Z,19.29
2023-08-03T09:58:15.067Z,19.28
2023-08-03T10:00:48.229Z,19.33
2023-08-03T10:03:20.344Z,19.38
2023-08-03T10:06:00.532Z,19.43
2023-08-03T10:08:47.474Z,19.36
2023-08-03T10:11:21.961Z,19.46
2023-08-03T10:13:58.676Z,19.51
2023-08-03T10:16:34.893Z,19.55
2023-08-03T20:24:16.202Z,17.46
2023-08-03T20:26:52.132Z,17.87
2023-08-03T20:29:25.258Z,18.22
2023-08-03T20:31:57.369Z,18.47
2023-08-03T20:34:29.406Z,18.63
2023-08-03T20:37:01.668Z,18.85
2023-08-03T20:39:36.148Z,18.94
2023-08-03T20:49:53.147Z,19.37
2023-08-03T20:52:25.230Z,19.42
2023-08-03T20:54:57.757Z,19.45
2023-08-03T20:57:29.803Z,19.47
2023-08-03T21:00:03.722Z,19.54
2023-08-03T21:02:35.849Z,19.53
2023-08-03T21:05:08.272Z,19.58
2023-08-03T21:07:40.258Z,19.58
2023-08-03T21:12:47.351Z,19.58
2023-08-03T21:15:20.022Z,19.58
2023-08-03T21:17:52.055Z,19.61
2023-08-03T21:20:24.130Z,19.60
2023-08-03T21:22:56.172Z,19.60
2023-08-03T21:25:28.392Z,19.56
2023-08-03T21:28:00.371Z,19.51
2023-08-03T21:30:34.133Z,19.50
2023-08-03T21:33:06.715Z,19.49
2023-08-03T21:35:38.697Z,19.52
2023-08-03T21:38:10.678Z,19.51
2023-08-03T21:40:42.651Z,19.49
2023-08-03T21:43:14.659Z,19.49
2023-08-03T21:45:52.045Z,19.51
2023-08-03T21:48:24.167Z,19.46
2023-08-03T21:50:56.153Z,19.40
2023-08-03T21:53:28.157Z,19.37
2023-08-03T21:56:00.304Z,19.35
2023-08-03T21:58:32.311Z,19.36
2023-08-03T22:01:09.853Z,19.38
2023-08-03T22:03:41.917Z,19.39
2023-08-03T22:06:14.130Z,19.36
2023-08-03T22:08:46.112Z,19.36
2023-08-03T22:11:22.092Z,19.35
2023-08-03T22:13:54.084Z,19.34
2023-08-03T22:16:27.425Z,19.35
2023-08-03T22:18:59.645Z,19.33
2023-08-03T22:21:38.950Z,19.31
2023-08-03T22:24:11.542Z,19.21
2023-08-03T22:26:43.513Z,19.30
2023-08-03T22:29:15.515Z,19.33
2023-08-03T22:31:47.782Z,19.31
2023-08-03T22:34:19.988Z,19.29
2023-08-03T22:36:51.961Z,19.24
2023-08-03T22:39:24.060Z,19.26
2023-08-03T22:41:56.099Z,19.25
2023-08-03T22:44:28.132Z,19.24
2023-08-03T22:47:00.108Z,19.17
2023-08-03T22:49:32.142Z,19.20
2023-08-03T22:52:04.452Z,19.17
2023-08-03T22:54:36.440Z,19.18
2023-08-03T22:57:08.473Z,19.16
2023-08-03T22:59:40.548Z,19.13
2023-08-03T23:02:12.554Z,19.12
2023-08-03T23:04:44.627Z,19.05
2023-08-03T23:07:16.625Z,19.01
2023-08-03T23:09:49.240Z,18.98
2023-08-03T23:12:21.341Z,18.85
2023-08-03T23:14:53.289Z,18.96
2023-08-03T23:17:25.260Z,18.97
2023-08-03T23:19:58.638Z,18.94
2023-08-03T23:22:30.770Z,18.86
2023-08-03T23:25:02.752Z,18.81
2023-08-03T23:27:34.752Z,18.76
2023-08-03T23:30:08.143Z,18.71
2023-08-03T23:32:40.477Z,18.64
2023-08-03T23:35:12.595Z,18.71
2023-08-03T23:37:44.690Z,18.65
2023-08-03T23:40:16.782Z,18.63
2023-08-03T23:42:48.729Z,18.62
2023-08-03T23:45:20.663Z,18.61
2023-08-03T23:47:52.653Z,18.60
2023-08-03T23:50:24.703Z,18.58
2023-08-03T23:52:56.750Z,18.56
2023-08-03T23:55:28.735Z,18.57
2023-08-03T23:58:00.906Z,18.57
